EZY825U EGKK-EGPE
Flight info
| Callsign | EZY825U |
|---|---|
| Flight time | 1h 9m |
| Altitude | 34000 |
| Route | LAM L10 BPK UN601 RIBEL DCT ABEVI DCT INPIP DCT TLA DCT FOYLE/N0374F250 N560 NESDI DCT GUSSI |
| Aircraft | A319/M-SDE2E3FGIJ1RWXYZ/LB1 |
Departure
| Time | 2026-05-09 08:49 |
|---|---|
| Airport | London Gatwick Airport (EGKK) |
Arrival
| Time | 2026-05-09 09:58 |
|---|---|
| Airport | Inverness Airport (EGPE) |
| Time | Latitude | Longitude | Altitude | Speed | Heading |
|---|---|---|---|---|---|
| 2026-05-09 08:15 | 51.15986 | -0.17973 | 208 ft | 0 kts | 78° |
| 2026-05-09 08:30 | 51.15983 | -0.18001 | 213 ft | 4 kts | 78° |
| 2026-05-09 08:31 | 51.15977 | -0.18043 | 214 ft | 4 kts | 78° |
| 2026-05-09 08:31 | 51.15972 | -0.18077 | 212 ft | 4 kts | 82° |
| 2026-05-09 08:31 | 51.15974 | -0.18114 | 206 ft | 4 kts | 131° |
| 2026-05-09 08:31 | 51.15994 | -0.18131 | 215 ft | 4 kts | 168° |
| 2026-05-09 08:32 | 51.16004 | -0.18134 | 213 ft | 0 kts | 168° |
| 2026-05-09 08:35 | 51.16001 | -0.18133 | 214 ft | 1 kts | 168° |
| 2026-05-09 08:35 | 51.15989 | -0.18129 | 213 ft | 3 kts | 168° |
| 2026-05-09 08:36 | 51.15965 | -0.18122 | 215 ft | 4 kts | 169° |
| 2026-05-09 08:36 | 51.15930 | -0.18110 | 210 ft | 6 kts | 166° |
| 2026-05-09 08:36 | 51.15886 | -0.18094 | 204 ft | 7 kts | 167° |
| 2026-05-09 08:36 | 51.15834 | -0.18076 | 204 ft | 8 kts | 168° |
| 2026-05-09 08:37 | 51.15777 | -0.18057 | 204 ft | 9 kts | 168° |
| 2026-05-09 08:37 | 51.15713 | -0.18034 | 204 ft | 10 kts | 170° |
| 2026-05-09 08:37 | 51.15676 | -0.18110 | 208 ft | 10 kts | 257° |
| 2026-05-09 08:37 | 51.15657 | -0.18222 | 209 ft | 10 kts | 236° |
| 2026-05-09 08:38 | 51.15592 | -0.18226 | 206 ft | 10 kts | 166° |
| 2026-05-09 08:38 | 51.15531 | -0.18203 | 212 ft | 8 kts | 167° |
| 2026-05-09 08:38 | 51.15488 | -0.18187 | 204 ft | 5 kts | 168° |
| 2026-05-09 08:38 | 51.15473 | -0.18183 | 212 ft | 0 kts | 168° |
| 2026-05-09 08:39 | 51.15470 | -0.18182 | 211 ft | 1 kts | 168° |
| 2026-05-09 08:39 | 51.15450 | -0.18199 | 207 ft | 6 kts | 224° |
| 2026-05-09 08:39 | 51.15415 | -0.18271 | 204 ft | 10 kts | 202° |
| 2026-05-09 08:40 | 51.15336 | -0.18259 | 204 ft | 13 kts | 167° |
| 2026-05-09 08:40 | 51.15258 | -0.18232 | 204 ft | 10 kts | 168° |
| 2026-05-09 08:40 | 51.15200 | -0.18227 | 204 ft | 7 kts | 205° |
| 2026-05-09 08:40 | 51.15186 | -0.18304 | 209 ft | 8 kts | 267° |
| 2026-05-09 08:41 | 51.15175 | -0.18382 | 203 ft | 7 kts | 257° |
| 2026-05-09 08:41 | 51.15166 | -0.18459 | 205 ft | 9 kts | 258° |
| 2026-05-09 08:41 | 51.15152 | -0.18571 | 205 ft | 12 kts | 259° |
| 2026-05-09 08:41 | 51.15132 | -0.18720 | 203 ft | 16 kts | 258° |
| 2026-05-09 08:42 | 51.15106 | -0.18894 | 207 ft | 16 kts | 257° |
| 2026-05-09 08:42 | 51.15081 | -0.19067 | 207 ft | 16 kts | 258° |
| 2026-05-09 08:42 | 51.15058 | -0.19241 | 204 ft | 16 kts | 258° |
| 2026-05-09 08:42 | 51.15034 | -0.19416 | 204 ft | 16 kts | 258° |
| 2026-05-09 08:43 | 51.15010 | -0.19603 | 210 ft | 19 kts | 258° |
| 2026-05-09 08:43 | 51.14981 | -0.19812 | 209 ft | 19 kts | 258° |
| 2026-05-09 08:43 | 51.14952 | -0.20026 | 210 ft | 20 kts | 257° |
| 2026-05-09 08:43 | 51.14921 | -0.20244 | 203 ft | 20 kts | 257° |
| 2026-05-09 08:44 | 51.14890 | -0.20464 | 206 ft | 20 kts | 257° |
| 2026-05-09 08:44 | 51.14859 | -0.20684 | 203 ft | 20 kts | 258° |
| 2026-05-09 08:44 | 51.14831 | -0.20903 | 204 ft | 20 kts | 258° |
| 2026-05-09 08:44 | 51.14804 | -0.21095 | 204 ft | 16 kts | 257° |
| 2026-05-09 08:45 | 51.14772 | -0.21247 | 204 ft | 15 kts | 257° |
| 2026-05-09 08:45 | 51.14753 | -0.21380 | 212 ft | 8 kts | 250° |
| 2026-05-09 08:45 | 51.14726 | -0.21404 | 208 ft | 2 kts | 164° |
| 2026-05-09 08:45 | 51.14724 | -0.21404 | 207 ft | 0 kts | 165° |
| 2026-05-09 08:46 | 51.14718 | -0.21401 | 206 ft | 3 kts | 165° |
| 2026-05-09 08:46 | 51.14678 | -0.21379 | 211 ft | 9 kts | 148° |
| 2026-05-09 08:46 | 51.14636 | -0.21330 | 207 ft | 5 kts | 168° |
| 2026-05-09 08:46 | 51.14620 | -0.21326 | 204 ft | 3 kts | 170° |
| 2026-05-09 08:47 | 51.14584 | -0.21315 | 206 ft | 8 kts | 167° |
| 2026-05-09 08:47 | 51.14526 | -0.21249 | 202 ft | 12 kts | 127° |
| 2026-05-09 08:47 | 51.14524 | -0.21147 | 203 ft | 8 kts | 75° |
| 2026-05-09 08:47 | 51.14528 | -0.21117 | 207 ft | 0 kts | 78° |
| 2026-05-09 08:48 | 51.14529 | -0.21106 | 208 ft | 6 kts | 78° |
| 2026-05-09 08:48 | 51.14590 | -0.20655 | 207 ft | 79 kts | 78° |
| 2026-05-09 08:48 | 51.14758 | -0.19449 | 209 ft | 141 kts | 77° |
| 2026-05-09 08:49 | 51.14987 | -0.17759 | 579 ft | 159 kts | 78° |
| 2026-05-09 08:49 | 51.15215 | -0.16022 | 1314 ft | 161 kts | 79° |
| 2026-05-09 08:49 | 51.15462 | -0.14243 | 2009 ft | 169 kts | 79° |
| 2026-05-09 08:49 | 51.15729 | -0.12301 | 2436 ft | 191 kts | 79° |
| 2026-05-09 08:50 | 51.16031 | -0.10091 | 2829 ft | 217 kts | 78° |
| 2026-05-09 08:50 | 51.16398 | -0.07624 | 3383 ft | 241 kts | 72° |
| 2026-05-09 08:50 | 51.17273 | -0.05264 | 4173 ft | 254 kts | 53° |
| 2026-05-09 08:50 | 51.18372 | -0.03031 | 5151 ft | 258 kts | 53° |
| 2026-05-09 08:51 | 51.19484 | -0.00752 | 6125 ft | 263 kts | 53° |
| 2026-05-09 08:51 | 51.20844 | 0.01228 | 7076 ft | 271 kts | 31° |
| 2026-05-09 08:51 | 51.22656 | 0.02114 | 7936 ft | 279 kts | 4° |
| 2026-05-09 08:51 | 51.24602 | 0.01819 | 8845 ft | 283 kts | 351° |
| 2026-05-09 08:52 | 51.26558 | 0.01337 | 9765 ft | 286 kts | 351° |
| 2026-05-09 08:52 | 51.28545 | 0.00837 | 10472 ft | 297 kts | 351° |
| 2026-05-09 08:52 | 51.30665 | 0.00302 | 10809 ft | 319 kts | 351° |
| 2026-05-09 08:52 | 51.32895 | -0.00256 | 11435 ft | 327 kts | 350° |
| 2026-05-09 08:53 | 51.35160 | -0.00816 | 12232 ft | 332 kts | 350° |
| 2026-05-09 08:53 | 51.37457 | -0.01381 | 13043 ft | 336 kts | 350° |
| 2026-05-09 08:53 | 51.39782 | -0.01952 | 13839 ft | 340 kts | 350° |
| 2026-05-09 08:53 | 51.42135 | -0.02532 | 14530 ft | 344 kts | 349° |
| 2026-05-09 08:54 | 51.44515 | -0.03117 | 15177 ft | 349 kts | 350° |
| 2026-05-09 08:54 | 51.46933 | -0.03715 | 15819 ft | 354 kts | 349° |
| 2026-05-09 08:54 | 51.49386 | -0.04321 | 16446 ft | 359 kts | 349° |
| 2026-05-09 08:54 | 51.51873 | -0.04930 | 17076 ft | 364 kts | 350° |
| 2026-05-09 08:55 | 51.54392 | -0.05547 | 17772 ft | 368 kts | 351° |
| 2026-05-09 08:55 | 51.56936 | -0.06174 | 18412 ft | 372 kts | 351° |
| 2026-05-09 08:55 | 51.59514 | -0.06812 | 18963 ft | 377 kts | 350° |
| 2026-05-09 08:55 | 51.62124 | -0.07463 | 19524 ft | 381 kts | 350° |
| 2026-05-09 08:56 | 51.64758 | -0.08125 | 20077 ft | 385 kts | 350° |
| 2026-05-09 08:56 | 51.67423 | -0.08789 | 20620 ft | 390 kts | 350° |
| 2026-05-09 08:56 | 51.70087 | -0.09447 | 21151 ft | 395 kts | 351° |
| 2026-05-09 08:56 | 51.72813 | -0.10161 | 21685 ft | 399 kts | 347° |
| 2026-05-09 08:57 | 51.75482 | -0.11458 | 22197 ft | 402 kts | 336° |
| 2026-05-09 08:57 | 51.77986 | -0.13491 | 22710 ft | 405 kts | 327° |
| 2026-05-09 08:57 | 51.80409 | -0.15827 | 23224 ft | 409 kts | 327° |
| 2026-05-09 08:57 | 51.82870 | -0.18185 | 23756 ft | 413 kts | 327° |
| 2026-05-09 08:58 | 51.85356 | -0.20554 | 24205 ft | 416 kts | 327° |
| 2026-05-09 08:58 | 51.87863 | -0.22938 | 24635 ft | 420 kts | 327° |
| 2026-05-09 08:58 | 51.90386 | -0.25342 | 25053 ft | 423 kts | 327° |
| 2026-05-09 08:58 | 51.92934 | -0.27780 | 25473 ft | 426 kts | 327° |
| 2026-05-09 08:59 | 51.95496 | -0.30239 | 25879 ft | 430 kts | 327° |
| 2026-05-09 08:59 | 51.98078 | -0.32722 | 26274 ft | 433 kts | 327° |
| 2026-05-09 08:59 | 52.00680 | -0.35227 | 26676 ft | 437 kts | 327° |
| 2026-05-09 08:59 | 52.03304 | -0.37758 | 27065 ft | 440 kts | 327° |
| 2026-05-09 09:00 | 52.05942 | -0.40303 | 27469 ft | 443 kts | 327° |
| 2026-05-09 09:00 | 52.08601 | -0.42863 | 27875 ft | 446 kts | 327° |
| 2026-05-09 09:00 | 52.11282 | -0.45445 | 28265 ft | 449 kts | 327° |
| 2026-05-09 09:00 | 52.13975 | -0.48044 | 28648 ft | 452 kts | 327° |
| 2026-05-09 09:01 | 52.16688 | -0.50672 | 29026 ft | 455 kts | 326° |
| 2026-05-09 09:01 | 52.19418 | -0.53322 | 29396 ft | 459 kts | 326° |
| 2026-05-09 09:01 | 52.22172 | -0.56000 | 29761 ft | 462 kts | 326° |
| 2026-05-09 09:01 | 52.24936 | -0.58693 | 30119 ft | 465 kts | 326° |
| 2026-05-09 09:02 | 52.27722 | -0.61410 | 30432 ft | 468 kts | 326° |
| 2026-05-09 09:02 | 52.30522 | -0.64142 | 30775 ft | 469 kts | 326° |
| 2026-05-09 09:02 | 52.33326 | -0.66888 | 31115 ft | 471 kts | 326° |
| 2026-05-09 09:02 | 52.36140 | -0.69648 | 31434 ft | 472 kts | 326° |
| 2026-05-09 09:03 | 52.38966 | -0.72416 | 31745 ft | 474 kts | 326° |
| 2026-05-09 09:03 | 52.41793 | -0.75187 | 32156 ft | 473 kts | 326° |
| 2026-05-09 09:03 | 52.44615 | -0.77956 | 32592 ft | 472 kts | 326° |
| 2026-05-09 09:03 | 52.47432 | -0.80724 | 33022 ft | 471 kts | 326° |
| 2026-05-09 09:04 | 52.50239 | -0.83488 | 33440 ft | 470 kts | 326° |
| 2026-05-09 09:04 | 52.53039 | -0.86250 | 33878 ft | 469 kts | 326° |
| 2026-05-09 09:04 | 52.55831 | -0.89011 | 34124 ft | 468 kts | 326° |
| 2026-05-09 09:04 | 52.58589 | -0.91741 | 34162 ft | 457 kts | 326° |
| 2026-05-09 09:05 | 52.61292 | -0.94423 | 34141 ft | 451 kts | 326° |
| 2026-05-09 09:05 | 52.66637 | -0.99750 | 34139 ft | 448 kts | 325° |
| 2026-05-09 09:06 | 52.71990 | -1.05102 | 34135 ft | 452 kts | 325° |
| 2026-05-09 09:06 | 52.77374 | -1.10491 | 34169 ft | 452 kts | 325° |
| 2026-05-09 09:07 | 52.82731 | -1.15860 | 34163 ft | 450 kts | 325° |
| 2026-05-09 09:07 | 52.88072 | -1.21239 | 34161 ft | 449 kts | 325° |
| 2026-05-09 09:08 | 52.93409 | -1.26632 | 34158 ft | 449 kts | 325° |
| 2026-05-09 09:08 | 52.97840 | -1.31116 | 34156 ft | 449 kts | 324° |
| 2026-05-09 09:09 | 53.03170 | -1.36512 | 34171 ft | 448 kts | 324° |
| 2026-05-09 09:09 | 53.08488 | -1.41915 | 34180 ft | 448 kts | 324° |
| 2026-05-09 09:10 | 53.13797 | -1.47334 | 34180 ft | 447 kts | 324° |
| 2026-05-09 09:10 | 53.19094 | -1.52762 | 34186 ft | 447 kts | 324° |
| 2026-05-09 09:11 | 53.24390 | -1.58203 | 34200 ft | 447 kts | 323° |
| 2026-05-09 09:11 | 53.29686 | -1.63665 | 34203 ft | 447 kts | 323° |
| 2026-05-09 09:12 | 53.34978 | -1.69115 | 34203 ft | 446 kts | 323° |
| 2026-05-09 09:12 | 53.40260 | -1.74574 | 34199 ft | 446 kts | 323° |
| 2026-05-09 09:13 | 53.45525 | -1.80055 | 34197 ft | 445 kts | 323° |
| 2026-05-09 09:13 | 53.50789 | -1.85540 | 34194 ft | 445 kts | 323° |
| 2026-05-09 09:14 | 53.56056 | -1.91029 | 34189 ft | 445 kts | 323° |
| 2026-05-09 09:14 | 53.61313 | -1.96534 | 34190 ft | 445 kts | 323° |
| 2026-05-09 09:15 | 53.66566 | -2.02073 | 34188 ft | 445 kts | 323° |
| 2026-05-09 09:15 | 53.71820 | -2.07624 | 34188 ft | 445 kts | 323° |
| 2026-05-09 09:16 | 53.77381 | -2.12378 | 34210 ft | 453 kts | 333° |
| 2026-05-09 09:16 | 53.86148 | -2.18338 | 34195 ft | 452 kts | 333° |
| 2026-05-09 09:17 | 53.91977 | -2.22324 | 34188 ft | 452 kts | 333° |
| 2026-05-09 09:17 | 53.97799 | -2.26330 | 34199 ft | 451 kts | 332° |
| 2026-05-09 09:18 | 54.03616 | -2.30354 | 34204 ft | 451 kts | 333° |
| 2026-05-09 09:18 | 54.09427 | -2.34366 | 34194 ft | 451 kts | 333° |
| 2026-05-09 09:19 | 54.15236 | -2.38385 | 34190 ft | 450 kts | 333° |
| 2026-05-09 09:19 | 54.21040 | -2.42417 | 34188 ft | 450 kts | 333° |
| 2026-05-09 09:20 | 54.26846 | -2.46453 | 34214 ft | 450 kts | 332° |
| 2026-05-09 09:20 | 54.32633 | -2.50495 | 34219 ft | 449 kts | 332° |
| 2026-05-09 09:21 | 54.38411 | -2.54551 | 34214 ft | 448 kts | 332° |
| 2026-05-09 09:21 | 54.44177 | -2.58624 | 34208 ft | 448 kts | 332° |
| 2026-05-09 09:22 | 54.49935 | -2.62689 | 34227 ft | 447 kts | 331° |
| 2026-05-09 09:22 | 54.55688 | -2.66751 | 34231 ft | 446 kts | 331° |
| 2026-05-09 09:23 | 54.61431 | -2.70825 | 34234 ft | 446 kts | 331° |
| 2026-05-09 09:23 | 54.67166 | -2.74918 | 34229 ft | 446 kts | 331° |
| 2026-05-09 09:24 | 54.72904 | -2.79020 | 34261 ft | 446 kts | 330° |
| 2026-05-09 09:24 | 54.78637 | -2.83120 | 34243 ft | 446 kts | 330° |
| 2026-05-09 09:25 | 54.84360 | -2.87234 | 34252 ft | 445 kts | 330° |
| 2026-05-09 09:25 | 54.90077 | -2.91350 | 34233 ft | 444 kts | 330° |
| 2026-05-09 09:26 | 54.95779 | -2.95483 | 34232 ft | 444 kts | 330° |
| 2026-05-09 09:26 | 55.01481 | -2.99621 | 34255 ft | 444 kts | 330° |
| 2026-05-09 09:27 | 55.07177 | -3.03751 | 34253 ft | 443 kts | 330° |
| 2026-05-09 09:27 | 55.12904 | -3.07924 | 34252 ft | 443 kts | 330° |
| 2026-05-09 09:28 | 55.18555 | -3.12059 | 34247 ft | 443 kts | 330° |
| 2026-05-09 09:28 | 55.24232 | -3.16231 | 34280 ft | 442 kts | 329° |
| 2026-05-09 09:29 | 55.29897 | -3.20417 | 34267 ft | 442 kts | 329° |
| 2026-05-09 09:29 | 55.35561 | -3.24603 | 34266 ft | 441 kts | 329° |
| 2026-05-09 09:30 | 55.41218 | -3.28788 | 34262 ft | 441 kts | 329° |
| 2026-05-09 09:30 | 55.46874 | -3.32996 | 34264 ft | 441 kts | 328° |
| 2026-05-09 09:31 | 55.49572 | -3.35431 | 34293 ft | 430 kts | 318° |
| 2026-05-09 09:31 | 55.51959 | -3.38474 | 34277 ft | 418 kts | 309° |
| 2026-05-09 09:32 | 55.58424 | -3.48666 | 34263 ft | 415 kts | 308° |
| 2026-05-09 09:32 | 55.62749 | -3.55447 | 34263 ft | 416 kts | 309° |
| 2026-05-09 09:33 | 55.67067 | -3.62251 | 34267 ft | 416 kts | 308° |
| 2026-05-09 09:33 | 55.71374 | -3.69074 | 34268 ft | 415 kts | 308° |
| 2026-05-09 09:34 | 55.75680 | -3.75910 | 34306 ft | 415 kts | 308° |
| 2026-05-09 09:34 | 55.79978 | -3.82753 | 33950 ft | 413 kts | 308° |
| 2026-05-09 09:36 | 55.94597 | -4.06206 | 31801 ft | 393 kts | 308° |
| 2026-05-09 09:36 | 55.96615 | -4.09465 | 31358 ft | 390 kts | 307° |
| 2026-05-09 09:36 | 55.98615 | -4.12707 | 30913 ft | 387 kts | 307° |
| 2026-05-09 09:37 | 56.00604 | -4.15932 | 30485 ft | 385 kts | 307° |
| 2026-05-09 09:37 | 56.02583 | -4.19141 | 30006 ft | 382 kts | 308° |
| 2026-05-09 09:37 | 56.04541 | -4.22314 | 29590 ft | 378 kts | 308° |
| 2026-05-09 09:37 | 56.06473 | -4.25457 | 29188 ft | 374 kts | 307° |
| 2026-05-09 09:38 | 56.08388 | -4.28580 | 28787 ft | 370 kts | 307° |
| 2026-05-09 09:38 | 56.10284 | -4.31670 | 28390 ft | 367 kts | 308° |
| 2026-05-09 09:38 | 56.12356 | -4.34416 | 27988 ft | 377 kts | 320° |
| 2026-05-09 09:38 | 56.14796 | -4.36317 | 27559 ft | 389 kts | 334° |
| 2026-05-09 09:39 | 56.17500 | -4.37153 | 27098 ft | 402 kts | 349° |
| 2026-05-09 09:39 | 56.20326 | -4.36836 | 26623 ft | 411 kts | 0° |
| 2026-05-09 09:39 | 56.23157 | -4.36156 | 26170 ft | 410 kts | 0° |
| 2026-05-09 09:39 | 56.25994 | -4.35480 | 25628 ft | 413 kts | 0° |
| 2026-05-09 09:40 | 56.28847 | -4.34805 | 25097 ft | 414 kts | 0° |
| 2026-05-09 09:40 | 56.31698 | -4.34129 | 24568 ft | 413 kts | 1° |
| 2026-05-09 09:40 | 56.34551 | -4.33453 | 24031 ft | 414 kts | 0° |
| 2026-05-09 09:40 | 56.37395 | -4.32780 | 23616 ft | 409 kts | 0° |
| 2026-05-09 09:41 | 56.40220 | -4.32107 | 22979 ft | 410 kts | 1° |
| 2026-05-09 09:41 | 56.43017 | -4.31435 | 22695 ft | 402 kts | 1° |
| 2026-05-09 09:41 | 56.45776 | -4.30770 | 22212 ft | 399 kts | 1° |
| 2026-05-09 09:41 | 56.48518 | -4.30116 | 21745 ft | 396 kts | 1° |
| 2026-05-09 09:42 | 56.51244 | -4.29470 | 21358 ft | 393 kts | 1° |
| 2026-05-09 09:42 | 56.53935 | -4.28825 | 20926 ft | 388 kts | 1° |
| 2026-05-09 09:42 | 56.56599 | -4.28180 | 20487 ft | 385 kts | 2° |
| 2026-05-09 09:42 | 56.59240 | -4.27540 | 20068 ft | 381 kts | 2° |
| 2026-05-09 09:43 | 56.61858 | -4.26910 | 19653 ft | 378 kts | 2° |
| 2026-05-09 09:43 | 56.64450 | -4.26291 | 19252 ft | 374 kts | 2° |
| 2026-05-09 09:43 | 56.67019 | -4.25681 | 18828 ft | 371 kts | 2° |
| 2026-05-09 09:43 | 56.69564 | -4.25077 | 18268 ft | 367 kts | 2° |
| 2026-05-09 09:44 | 56.72078 | -4.24475 | 17720 ft | 361 kts | 3° |
| 2026-05-09 09:44 | 56.74554 | -4.23878 | 17165 ft | 357 kts | 3° |
| 2026-05-09 09:44 | 56.76991 | -4.23285 | 16757 ft | 349 kts | 3° |
| 2026-05-09 09:44 | 56.79374 | -4.22700 | 16381 ft | 342 kts | 3° |
| 2026-05-09 09:45 | 56.81710 | -4.22125 | 16004 ft | 335 kts | 3° |
| 2026-05-09 09:45 | 56.83996 | -4.21567 | 15640 ft | 328 kts | 3° |
| 2026-05-09 09:45 | 56.86238 | -4.21021 | 15270 ft | 322 kts | 3° |
| 2026-05-09 09:45 | 56.88444 | -4.20483 | 14919 ft | 317 kts | 3° |
| 2026-05-09 09:46 | 56.90611 | -4.19956 | 14572 ft | 312 kts | 3° |
| 2026-05-09 09:46 | 56.92748 | -4.19437 | 14225 ft | 308 kts | 3° |
| 2026-05-09 09:46 | 56.94855 | -4.18923 | 13857 ft | 303 kts | 3° |
| 2026-05-09 09:46 | 56.96929 | -4.18415 | 13509 ft | 298 kts | 4° |
| 2026-05-09 09:47 | 56.98966 | -4.17915 | 13170 ft | 293 kts | 4° |
| 2026-05-09 09:47 | 57.00970 | -4.17423 | 12831 ft | 288 kts | 4° |
| 2026-05-09 09:47 | 57.02932 | -4.16942 | 12502 ft | 282 kts | 4° |
| 2026-05-09 09:47 | 57.04871 | -4.16468 | 12180 ft | 280 kts | 4° |
| 2026-05-09 09:48 | 57.06790 | -4.16000 | 11842 ft | 277 kts | 4° |
| 2026-05-09 09:48 | 57.08694 | -4.15532 | 11508 ft | 275 kts | 4° |
| 2026-05-09 09:48 | 57.10591 | -4.15066 | 11173 ft | 275 kts | 4° |
| 2026-05-09 09:48 | 57.12485 | -4.14603 | 10831 ft | 275 kts | 4° |
| 2026-05-09 09:49 | 57.14377 | -4.14139 | 10497 ft | 274 kts | 4° |
| 2026-05-09 09:49 | 57.15654 | -4.13822 | 10264 ft | 274 kts | 5° |
| 2026-05-09 09:49 | 57.17538 | -4.13352 | 9900 ft | 272 kts | 5° |
| 2026-05-09 09:49 | 57.19415 | -4.12885 | 9496 ft | 272 kts | 5° |
| 2026-05-09 09:50 | 57.21287 | -4.12419 | 9138 ft | 270 kts | 5° |
| 2026-05-09 09:50 | 57.23140 | -4.11955 | 8775 ft | 268 kts | 4° |
| 2026-05-09 09:50 | 57.24982 | -4.11488 | 8404 ft | 266 kts | 6° |
| 2026-05-09 09:50 | 57.26808 | -4.11028 | 8036 ft | 264 kts | 5° |
| 2026-05-09 09:51 | 57.28616 | -4.10575 | 7683 ft | 261 kts | 6° |
| 2026-05-09 09:51 | 57.30413 | -4.10121 | 7296 ft | 260 kts | 6° |
| 2026-05-09 09:51 | 57.32206 | -4.09724 | 6881 ft | 259 kts | 0° |
| 2026-05-09 09:51 | 57.33898 | -4.10610 | 6415 ft | 256 kts | 324° |
| 2026-05-09 09:52 | 57.34968 | -4.13156 | 6053 ft | 253 kts | 293° |
| 2026-05-09 09:52 | 57.35460 | -4.16269 | 5655 ft | 251 kts | 288° |
| 2026-05-09 09:52 | 57.36053 | -4.19286 | 5235 ft | 248 kts | 295° |
| 2026-05-09 09:52 | 57.36817 | -4.22161 | 4656 ft | 252 kts | 301° |
| 2026-05-09 09:53 | 57.37741 | -4.24904 | 4375 ft | 244 kts | 306° |
| 2026-05-09 09:53 | 57.38714 | -4.27324 | 4289 ft | 224 kts | 313° |
| 2026-05-09 09:53 | 57.39950 | -4.28734 | 4208 ft | 201 kts | 351° |
| 2026-05-09 09:53 | 57.41265 | -4.28455 | 4146 ft | 188 kts | 20° |
| 2026-05-09 09:54 | 57.42474 | -4.27595 | 4083 ft | 182 kts | 19° |
| 2026-05-09 09:54 | 57.43630 | -4.26773 | 3915 ft | 175 kts | 24° |
| 2026-05-09 09:54 | 57.44596 | -4.25467 | 3581 ft | 175 kts | 43° |
| 2026-05-09 09:54 | 57.45426 | -4.23792 | 3162 ft | 177 kts | 46° |
| 2026-05-09 09:55 | 57.46229 | -4.22096 | 2741 ft | 178 kts | 47° |
| 2026-05-09 09:55 | 57.47042 | -4.20353 | 2266 ft | 176 kts | 46° |
| 2026-05-09 09:55 | 57.47823 | -4.18670 | 1967 ft | 167 kts | 46° |
| 2026-05-09 09:55 | 57.48559 | -4.17080 | 1708 ft | 158 kts | 47° |
| 2026-05-09 09:56 | 57.49255 | -4.15577 | 1475 ft | 150 kts | 47° |
| 2026-05-09 09:56 | 57.49916 | -4.14147 | 1263 ft | 142 kts | 47° |
| 2026-05-09 09:56 | 57.50534 | -4.12811 | 1067 ft | 132 kts | 48° |
| 2026-05-09 09:56 | 57.51128 | -4.11526 | 883 ft | 130 kts | 49° |
| 2026-05-09 09:57 | 57.51714 | -4.10258 | 702 ft | 128 kts | 49° |
| 2026-05-09 09:57 | 57.52292 | -4.09004 | 538 ft | 127 kts | 50° |
| 2026-05-09 09:57 | 57.52865 | -4.07764 | 367 ft | 126 kts | 50° |
| 2026-05-09 09:57 | 57.53436 | -4.06523 | 190 ft | 125 kts | 50° |
| 2026-05-09 09:58 | 57.53998 | -4.05304 | 46 ft | 116 kts | 50° |
| 2026-05-09 09:58 | 57.54413 | -4.04406 | 34 ft | 53 kts | 49° |
| 2026-05-09 09:58 | 57.54555 | -4.04098 | 30 ft | 21 kts | 50° |
| 2026-05-09 09:58 | 57.54637 | -4.03915 | 30 ft | 13 kts | 50° |
| 2026-05-09 09:59 | 57.54672 | -4.03846 | 30 ft | 2 kts | 135° |
| 2026-05-09 09:59 | 57.54645 | -4.03882 | 30 ft | 7 kts | 222° |
| 2026-05-09 09:59 | 57.54606 | -4.03975 | 29 ft | 11 kts | 235° |
| 2026-05-09 09:59 | 57.54552 | -4.04100 | 30 ft | 13 kts | 229° |
| 2026-05-09 10:00 | 57.54488 | -4.04239 | 30 ft | 15 kts | 229° |
| 2026-05-09 10:00 | 57.54415 | -4.04396 | 34 ft | 17 kts | 229° |
| 2026-05-09 10:00 | 57.54324 | -4.04592 | 35 ft | 23 kts | 229° |
| 2026-05-09 10:00 | 57.54230 | -4.04797 | 35 ft | 22 kts | 229° |
| 2026-05-09 10:01 | 57.54129 | -4.05015 | 35 ft | 23 kts | 229° |
| 2026-05-09 10:01 | 57.54026 | -4.05239 | 37 ft | 23 kts | 229° |
| 2026-05-09 10:01 | 57.53923 | -4.05462 | 40 ft | 22 kts | 230° |
| 2026-05-09 10:01 | 57.53820 | -4.05688 | 41 ft | 22 kts | 229° |
| 2026-05-09 10:02 | 57.53739 | -4.05865 | 39 ft | 16 kts | 230° |
| 2026-05-09 10:02 | 57.53719 | -4.06004 | 38 ft | 11 kts | 304° |
| 2026-05-09 10:02 | 57.53768 | -4.06139 | 35 ft | 15 kts | 303° |
| 2026-05-09 10:02 | 57.53844 | -4.06182 | 36 ft | 9 kts | 2° |
| 2026-05-09 10:03 | 57.53902 | -4.06172 | 35 ft | 8 kts | 6° |
| 2026-05-09 10:03 | 57.53947 | -4.06171 | 36 ft | 5 kts | 335° |
| 2026-05-09 10:03 | 57.53966 | -4.06211 | 36 ft | 3 kts | 307° |
| 2026-05-09 10:03 | 57.53975 | -4.06231 | 36 ft | 1 kts | 308° |
| 2026-05-09 10:04 | 57.53977 | -4.06237 | 36 ft | 0 kts | 309° |
| 2026-05-09 10:05 | 57.54073 | -4.06242 | 35 ft | 0 kts | 276° |